Time;durP1;ratioP1;P1;durP2;ratioP2;P2;SDS_P1;SDS_P2;PMS_P1;PMS_P2;Temp;Humidity;BMP_temperature;BMP_pressure;BME280_temperature;BME280_humidity;BME280_pressure;Samples;Min_cycle;Max_cycle;Signal;HPM_P1;HPM_P2
2022/10/06 00:00:45;;;;;;;7.93;1.60;;;13.20;99.90;;;;;;5047439;28;20540;-66
2022/10/06 00:03:11;;;;;;;11.75;1.80;;;13.10;99.90;;;;;;5047184;28;20052;-66
2022/10/06 00:05:37;;;;;;;9.98;1.38;;;13.10;99.90;;;;;;5047848;28;20047;-66
2022/10/06 00:08:03;;;;;;;6.35;1.38;;;13.10;99.90;;;;;;5027906;28;20048;-66
2022/10/06 00:10:29;;;;;;;10.48;1.80;;;13.10;99.90;;;;;;5043258;28;20109;-66
2022/10/06 00:12:56;;;;;;;9.43;1.80;;;13.10;99.90;;;;;;5043771;28;20048;-66
2022/10/06 00:15:28;;;;;;;13.35;2.05;;;13.00;99.90;;;;;;5044784;28;20060;-66
2022/10/06 00:17:56;;;;;;;6.57;1.67;;;13.00;99.90;;;;;;5045069;28;20124;-66
2022/10/06 00:20:22;;;;;;;11.73;2.40;;;13.00;99.90;;;;;;5045643;28;20044;-65
2022/10/06 00:22:48;;;;;;;8.93;1.85;;;13.00;99.90;;;;;;5042522;28;20171;-66
2022/10/06 00:25:17;;;;;;;12.95;1.98;;;13.00;99.90;;;;;;5031474;28;20090;-66
2022/10/06 00:27:48;;;;;;;8.43;1.77;;;13.00;99.90;;;;;;5043765;28;20044;-66
2022/10/06 00:30:20;;;;;;;9.57;1.73;;;13.00;99.90;;;;;;5027462;28;20398;-66
2022/10/06 00:32:52;;;;;;;9.60;1.92;;;13.00;99.90;;;;;;5044964;28;20046;-66
2022/10/06 00:35:18;;;;;;;16.40;2.30;;;12.90;99.90;;;;;;5047182;28;20741;-66
2022/10/06 00:37:44;;;;;;;15.77;2.35;;;12.90;99.90;;;;;;5037107;28;20129;-67
2022/10/06 00:40:10;;;;;;;13.70;2.30;;;12.90;99.90;;;;;;5035323;28;20826;-66
2022/10/06 00:42:57;;;;;;;17.40;2.25;;;12.90;99.90;;;;;;5027112;28;20048;-66
2022/10/06 00:45:45;;;;;;;14.55;2.30;;;12.90;99.90;;;;;;5046559;28;20135;-66
2022/10/06 00:48:26;;;;;;;12.60;2.38;;;12.90;99.90;;;;;;5043595;28;20052;-67
2022/10/06 00:50:54;;;;;;;12.35;2.05;;;12.80;99.90;;;;;;5043245;28;20177;-66
2022/10/06 00:53:21;;;;;;;9.63;2.08;;;12.80;99.90;;;;;;5044544;28;20048;-66
2022/10/06 00:55:48;;;;;;;11.73;1.80;;;12.80;99.90;;;;;;5031715;28;20040;-66
2022/10/06 00:58:15;;;;;;;11.93;2.10;;;12.80;99.90;;;;;;5041465;28;20161;-67
2022/10/06 01:00:43;;;;;;;15.43;2.58;;;12.80;99.90;;;;;;5045802;28;20109;-66
2022/10/06 01:03:22;;;;;;;13.77;2.00;;;12.70;99.90;;;;;;5028332;28;20509;-66
2022/10/06 01:05:50;;;;;;;13.25;2.22;;;12.70;99.90;;;;;;5032190;28;20368;-66
2022/10/06 01:08:17;;;;;;;18.15;2.50;;;12.70;99.90;;;;;;5028809;28;20052;-66
2022/10/06 01:10:43;;;;;;;14.90;2.20;;;12.70;99.90;;;;;;5047490;28;20048;-66
2022/10/06 01:13:10;;;;;;;11.20;2.28;;;12.60;99.90;;;;;;5027922;28;21021;-67
2022/10/06 01:15:49;;;;;;;11.65;2.17;;;12.60;99.90;;;;;;5060698;28;20077;-67
2022/10/06 01:18:17;;;;;;;12.40;3.08;;;12.60;99.90;;;;;;5032953;28;20047;-66
2022/10/06 01:21:12;;;;;;;14.65;2.55;;;12.50;99.90;;;;;;5039647;28;20520;-66
2022/10/06 01:23:38;;;;;;;16.67;2.42;;;12.50;99.90;;;;;;5041338;28;20417;-66
2022/10/06 01:26:08;;;;;;;13.00;2.00;;;12.50;99.90;;;;;;5031985;28;20046;-67
2022/10/06 01:28:34;;;;;;;14.20;2.17;;;12.50;99.90;;;;;;5051965;28;20044;-66
2022/10/06 01:31:01;;;;;;;10.38;2.60;;;12.50;99.90;;;;;;5037620;28;20047;-66
2022/10/06 01:33:28;;;;;;;13.43;2.20;;;12.50;99.90;;;;;;5048394;28;20046;-66
2022/10/06 01:35:55;;;;;;;13.23;2.33;;;12.50;99.90;;;;;;5048517;28;20052;-66
2022/10/06 01:38:20;;;;;;;13.25;2.35;;;12.50;99.90;;;;;;5031286;28;20047;-66
2022/10/06 01:40:49;;;;;;;11.25;2.47;;;12.50;99.90;;;;;;5027275;28;20062;-66
2022/10/06 01:43:14;;;;;;;14.60;2.15;;;12.50;99.90;;;;;;5050465;28;20063;-66
2022/10/06 01:45:40;;;;;;;12.38;2.40;;;12.50;99.90;;;;;;5010458;28;20296;-67
2022/10/06 01:48:07;;;;;;;13.25;2.33;;;12.50;99.90;;;;;;5031093;28;20525;-66
2022/10/06 01:50:33;;;;;;;10.23;2.88;;;12.50;99.90;;;;;;5047700;28;20511;-66
2022/10/06 01:52:59;;;;;;;13.82;2.10;;;12.40;99.90;;;;;;5057764;28;20048;-66
2022/10/06 01:55:26;;;;;;;14.90;2.35;;;12.40;99.90;;;;;;5044701;28;20419;-66
2022/10/06 01:57:52;;;;;;;11.15;2.42;;;12.50;99.90;;;;;;5053727;28;20051;-66
2022/10/06 02:00:18;;;;;;;13.68;2.70;;;12.40;99.90;;;;;;5040731;28;20044;-66
2022/10/06 02:02:44;;;;;;;11.57;2.10;;;12.40;99.90;;;;;;5039940;28;20079;-66
2022/10/06 02:05:10;;;;;;;12.57;2.50;;;12.30;99.90;;;;;;5031677;28;20047;-66
2022/10/06 02:07:36;;;;;;;16.08;2.40;;;12.30;99.90;;;;;;5042499;28;20387;-66
2022/10/06 02:10:04;;;;;;;10.88;2.20;;;12.40;99.90;;;;;;5040079;28;20052;-66
2022/10/06 02:12:31;;;;;;;12.05;2.70;;;12.30;99.90;;;;;;5040110;28;20069;-66
2022/10/06 02:14:57;;;;;;;9.80;1.77;;;12.20;99.90;;;;;;5040527;28;20036;-66
2022/10/06 02:17:23;;;;;;;14.25;1.88;;;12.20;99.90;;;;;;5012955;28;20157;-66
2022/10/06 02:19:49;;;;;;;10.20;2.15;;;12.20;99.90;;;;;;5040852;28;20176;-66
2022/10/06 02:22:15;;;;;;;11.57;2.50;;;12.20;99.90;;;;;;5024894;28;20055;-67
2022/10/06 02:24:41;;;;;;;14.55;2.78;;;12.20;99.90;;;;;;5045386;28;20190;-66
2022/10/06 02:27:07;;;;;;;14.13;2.30;;;12.10;99.90;;;;;;5019292;28;20708;-66
2022/10/06 02:29:33;;;;;;;16.45;2.22;;;12.10;99.90;;;;;;5044801;28;22009;-66
2022/10/06 02:31:59;;;;;;;11.13;2.03;;;12.10;99.90;;;;;;5058213;28;20036;-66
2022/10/06 02:34:25;;;;;;;12.70;2.50;;;12.10;99.90;;;;;;5051899;28;20055;-66
2022/10/06 02:36:51;;;;;;;19.63;2.47;;;12.20;99.90;;;;;;5029289;28;20421;-66
2022/10/06 02:39:17;;;;;;;15.63;2.38;;;12.20;99.90;;;;;;5034713;28;20127;-66
2022/10/06 02:41:42;;;;;;;11.65;2.63;;;12.20;99.90;;;;;;5017403;28;20056;-66
2022/10/06 02:44:08;;;;;;;10.68;2.30;;;12.20;99.90;;;;;;5046704;28;20562;-66
2022/10/06 02:46:34;;;;;;;17.30;2.58;;;12.20;99.90;;;;;;5030674;28;20053;-66
2022/10/06 02:49:00;;;;;;;12.13;2.20;;;12.20;99.90;;;;;;5041716;28;20052;-66
2022/10/06 02:51:26;;;;;;;15.10;2.50;;;12.20;99.90;;;;;;5033728;28;20156;-66
2022/10/06 02:53:52;;;;;;;15.88;2.50;;;12.20;99.90;;;;;;5042566;28;20045;-66
2022/10/06 02:56:21;;;;;;;16.30;2.80;;;12.10;99.90;;;;;;5039027;28;20047;-66
2022/10/06 02:58:49;;;;;;;16.10;2.30;;;12.10;99.90;;;;;;5048805;28;20114;-66
2022/10/06 03:01:22;;;;;;;13.02;2.75;;;12.10;99.90;;;;;;5041009;28;20346;-66
2022/10/06 03:03:48;;;;;;;17.88;2.53;;;12.10;99.90;;;;;;5042174;28;20124;-66
2022/10/06 03:06:23;;;;;;;15.07;2.53;;;12.00;99.90;;;;;;5029733;28;20067;-66
2022/10/06 03:08:51;;;;;;;13.45;2.17;;;12.00;99.90;;;;;;5040397;28;20573;-66
2022/10/06 03:11:21;;;;;;;12.55;2.15;;;12.00;99.90;;;;;;5044887;28;20493;-67
2022/10/06 03:13:48;;;;;;;16.80;2.67;;;12.00;99.90;;;;;;5042039;28;20603;-66
2022/10/06 03:16:22;;;;;;;12.23;2.50;;;12.00;99.90;;;;;;5042326;28;20402;-66
2022/10/06 03:18:49;;;;;;;11.88;2.10;;;12.00;99.90;;;;;;5028582;28;20037;-68
2022/10/06 03:21:16;;;;;;;11.88;1.92;;;12.00;99.90;;;;;;5041435;28;20049;-66
2022/10/06 03:23:43;;;;;;;14.70;2.90;;;12.00;99.90;;;;;;5022987;28;20044;-66
2022/10/06 03:26:09;;;;;;;10.93;2.42;;;11.90;99.90;;;;;;5025223;28;20048;-66
2022/10/06 03:28:35;;;;;;;10.00;2.10;;;11.90;99.90;;;;;;5040769;28;20071;-66
2022/10/06 03:31:02;;;;;;;13.25;2.47;;;11.90;99.90;;;;;;4995143;28;20546;-66
2022/10/06 03:33:29;;;;;;;14.10;2.60;;;11.90;99.90;;;;;;5031309;28;20048;-66
2022/10/06 03:36:16;;;;;;;11.63;2.15;;;11.90;99.90;;;;;;5047231;28;20045;-66
2022/10/06 03:38:42;;;;;;;15.52;2.30;;;11.80;99.90;;;;;;5042069;28;20545;-66
2022/10/06 03:41:14;;;;;;;13.27;2.50;;;11.80;99.90;;;;;;5039348;28;20049;-66
2022/10/06 03:43:42;;;;;;;8.63;1.77;;;11.80;99.90;;;;;;5041198;28;20145;-66
2022/10/06 03:46:11;;;;;;;13.32;2.22;;;11.70;99.90;;;;;;5042930;28;20445;-66
2022/10/06 03:48:37;;;;;;;15.48;2.47;;;11.70;99.90;;;;;;5042731;28;20056;-66
2022/10/06 03:51:06;;;;;;;16.02;2.33;;;11.70;99.90;;;;;;5027552;28;20494;-66
2022/10/06 03:53:33;;;;;;;11.75;2.00;;;11.70;99.90;;;;;;5044027;28;20596;-66
2022/10/06 03:56:07;;;;;;;11.63;2.45;;;11.70;99.90;;;;;;5053599;28;20478;-67
2022/10/06 03:58:38;;;;;;;14.35;2.25;;;11.70;99.90;;;;;;5060990;28;20478;-66
2022/10/06 04:01:13;;;;;;;16.88;2.60;;;11.70;99.90;;;;;;5045259;28;20052;-66
2022/10/06 04:03:39;;;;;;;10.10;2.38;;;11.70;99.90;;;;;;5044547;28;20555;-66
2022/10/06 04:06:08;;;;;;;16.23;2.20;;;11.70;99.90;;;;;;5014402;28;20040;-66
2022/10/06 04:08:34;;;;;;;15.00;2.65;;;11.80;99.90;;;;;;5044214;28;20044;-66
2022/10/06 04:11:05;;;;;;;14.73;2.55;;;11.80;99.90;;;;;;5029283;28;20175;-66
2022/10/06 04:13:31;;;;;;;14.05;2.30;;;11.80;99.90;;;;;;5043886;28;20622;-66
2022/10/06 04:15:57;;;;;;;14.30;2.28;;;11.80;99.90;;;;;;5032308;28;20051;-66
2022/10/06 04:18:23;;;;;;;12.55;2.28;;;11.70;99.90;;;;;;5028505;28;20048;-66
2022/10/06 04:20:48;;;;;;;13.55;2.40;;;11.70;99.90;;;;;;5046201;28;20139;-66
2022/10/06 04:23:15;;;;;;;9.82;2.10;;;11.70;99.90;;;;;;5050564;28;20062;-66
2022/10/06 04:25:41;;;;;;;10.82;2.30;;;11.70;99.90;;;;;;5033471;28;20051;-66
2022/10/06 04:28:07;;;;;;;9.82;2.08;;;11.60;99.90;;;;;;5016527;28;20086;-66
2022/10/06 04:30:32;;;;;;;12.70;2.47;;;11.60;99.90;;;;;;5042266;28;20438;-66
2022/10/06 04:32:58;;;;;;;11.65;1.98;;;11.50;99.90;;;;;;5034519;28;20051;-66
2022/10/06 04:35:26;;;;;;;12.20;1.90;;;11.50;99.90;;;;;;5041035;28;20040;-66
2022/10/06 04:37:54;;;;;;;12.00;2.22;;;11.50;99.90;;;;;;5044098;28;20154;-66
2022/10/06 04:40:19;;;;;;;10.40;1.75;;;11.50;99.90;;;;;;5030446;28;20186;-66
2022/10/06 04:42:45;;;;;;;10.32;2.33;;;11.40;99.90;;;;;;5030748;28;20047;-66
2022/10/06 04:45:11;;;;;;;10.73;1.90;;;11.40;99.90;;;;;;5032264;28;20131;-66
2022/10/06 04:47:37;;;;;;;11.48;2.38;;;11.40;99.90;;;;;;5042687;28;20051;-66
2022/10/06 04:50:03;;;;;;;9.60;1.73;;;11.50;99.90;;;;;;5044497;28;20037;-66
2022/10/06 04:52:29;;;;;;;9.90;2.17;;;11.30;99.90;;;;;;5033645;28;20069;-66
2022/10/06 04:54:56;;;;;;;10.88;2.10;;;11.40;99.90;;;;;;5040563;28;20076;-66
2022/10/06 04:57:22;;;;;;;12.65;2.05;;;11.40;99.90;;;;;;5033452;28;20052;-66
2022/10/06 05:02:32;;;;;;;14.68;2.28;;;11.30;99.90;;;;;;5034221;28;20647;-66
2022/10/06 05:04:58;;;;;;;11.70;2.60;;;11.30;99.90;;;;;;5030464;28;20498;-66
2022/10/06 05:07:23;;;;;;;18.95;2.40;;;11.30;99.90;;;;;;5039794;28;20567;-66
2022/10/06 05:09:49;;;;;;;12.65;2.55;;;11.30;99.90;;;;;;5025046;28;20508;-66
2022/10/06 05:12:15;;;;;;;12.65;2.30;;;11.30;99.90;;;;;;5025451;28;20102;-66
2022/10/06 05:14:41;;;;;;;10.55;2.10;;;11.30;99.90;;;;;;5038489;28;20040;-66
2022/10/06 05:17:06;;;;;;;16.80;2.42;;;11.20;99.90;;;;;;5038917;28;20051;-66
2022/10/06 05:19:32;;;;;;;16.20;2.22;;;11.20;99.90;;;;;;5042947;28;20084;-66
2022/10/06 05:21:58;;;;;;;11.10;2.22;;;11.20;99.90;;;;;;5037756;28;20426;-66
2022/10/06 05:24:24;;;;;;;16.17;3.08;;;11.20;99.90;;;;;;5028896;28;20124;-66
2022/10/06 05:26:50;;;;;;;10.15;2.35;;;11.20;99.90;;;;;;5032826;28;20044;-66
2022/10/06 05:29:15;;;;;;;14.93;3.17;;;11.10;99.90;;;;;;5024038;28;20432;-66
2022/10/06 05:31:42;;;;;;;17.45;2.85;;;11.10;99.90;;;;;;5025416;28;20059;-65
2022/10/06 05:34:08;;;;;;;13.45;2.95;;;11.10;99.90;;;;;;5036236;28;20134;-66
2022/10/06 05:36:34;;;;;;;11.63;2.20;;;11.10;99.90;;;;;;5028568;28;20135;-66
2022/10/06 05:39:01;;;;;;;10.63;2.08;;;11.10;99.90;;;;;;5035037;28;20388;-66
2022/10/06 05:41:29;;;;;;;12.18;2.40;;;11.10;99.90;;;;;;5024965;28;20081;-66
2022/10/06 05:43:57;;;;;;;11.77;2.03;;;11.10;99.90;;;;;;5042619;28;20132;-66
2022/10/06 05:46:28;;;;;;;14.02;2.47;;;11.10;99.90;;;;;;5037319;28;20068;-66
2022/10/06 05:48:56;;;;;;;10.30;2.50;;;11.00;99.90;;;;;;5058369;28;20045;-66
2022/10/06 05:51:23;;;;;;;11.57;2.15;;;11.00;99.90;;;;;;5032889;28;20462;-66
2022/10/06 05:53:49;;;;;;;15.27;2.47;;;11.00;99.90;;;;;;5041193;28;20047;-67
2022/10/06 05:56:18;;;;;;;14.27;2.22;;;11.00;99.90;;;;;;5053071;28;20048;-67
2022/10/06 05:58:46;;;;;;;13.55;2.20;;;11.00;99.90;;;;;;5032535;28;20048;-66
2022/10/06 06:01:18;;;;;;;15.23;2.15;;;11.00;99.90;;;;;;5038045;28;20044;-66
2022/10/06 06:03:53;;;;;;;10.90;2.25;;;11.00;99.90;;;;;;5038534;28;20051;-67
2022/10/06 06:06:30;;;;;;;15.30;2.80;;;11.00;99.90;;;;;;5037806;28;20074;-66
2022/10/06 06:09:07;;;;;;;16.35;2.15;;;11.00;99.90;;;;;;5048918;28;20048;-66
2022/10/06 06:11:35;;;;;;;13.43;2.33;;;11.00;99.90;;;;;;5024839;28;20044;-62
2022/10/06 06:14:07;;;;;;;14.98;3.05;;;10.90;99.90;;;;;;5046346;28;20052;-57
2022/10/06 06:16:34;;;;;;;7.97;2.50;;;10.90;99.90;;;;;;5066502;28;20641;-58
2022/10/06 06:19:00;;;;;;;10.55;2.42;;;11.00;99.90;;;;;;5074015;28;20475;-57
2022/10/06 06:21:27;;;;;;;13.90;2.58;;;10.90;99.90;;;;;;5047020;28;20048;-57
2022/10/06 06:23:53;;;;;;;11.63;1.90;;;10.90;99.90;;;;;;5048198;28;20578;-58
2022/10/06 06:26:22;;;;;;;10.55;2.40;;;10.90;99.90;;;;;;5070935;28;20044;-57
2022/10/06 06:28:49;;;;;;;15.70;3.35;;;10.90;99.90;;;;;;5075309;28;20116;-58
2022/10/06 06:31:21;;;;;;;13.27;2.45;;;11.00;99.90;;;;;;5076370;28;20174;-57
2022/10/06 06:33:49;;;;;;;12.98;2.28;;;11.00;99.90;;;;;;5073935;28;20041;-57
2022/10/06 06:36:16;;;;;;;17.60;2.33;;;11.00;99.90;;;;;;5048664;28;20422;-58
2022/10/06 06:38:45;;;;;;;12.95;2.08;;;11.00;99.90;;;;;;5067315;28;20040;-58
2022/10/06 06:41:19;;;;;;;13.65;2.30;;;11.00;99.90;;;;;;5062292;28;20498;-57
2022/10/06 06:43:46;;;;;;;12.30;2.22;;;11.10;99.90;;;;;;5067870;28;20048;-57
2022/10/06 06:46:15;;;;;;;13.23;2.85;;;11.20;99.90;;;;;;5064154;28;21146;-58
2022/10/06 06:48:42;;;;;;;9.85;2.53;;;11.20;99.90;;;;;;5063268;28;20566;-58
2022/10/06 06:51:11;;;;;;;16.02;2.88;;;11.30;99.90;;;;;;5041001;28;20052;-58
2022/10/06 06:53:38;;;;;;;13.75;2.80;;;11.40;99.90;;;;;;5059408;28;20168;-58
2022/10/06 06:56:07;;;;;;;20.35;2.78;;;11.40;99.90;;;;;;5060406;28;20863;-58
2022/10/06 06:58:33;;;;;;;14.32;2.15;;;11.50;99.90;;;;;;5062620;28;20044;-58
2022/10/06 07:01:12;;;;;;;13.30;1.98;;;11.50;99.90;;;;;;5062660;28;20049;-58
2022/10/06 07:03:39;;;;;;;12.85;3.00;;;11.60;99.90;;;;;;5064473;28;20059;-57
2022/10/06 07:06:09;;;;;;;10.75;2.30;;;11.70;99.90;;;;;;5060940;28;20079;-58
2022/10/06 07:08:46;;;;;;;12.88;2.20;;;11.70;99.90;;;;;;5061284;28;20047;-57
2022/10/06 07:11:21;;;;;;;16.35;2.78;;;11.80;99.90;;;;;;5063424;28;20478;-58
2022/10/06 07:13:52;;;;;;;15.82;2.60;;;11.80;99.90;;;;;;5048914;28;20088;-57
2022/10/06 07:27:28;;;;;;;14.60;2.50;;;11.90;99.90;;;;;;5061079;28;20054;-58
2022/10/06 07:29:55;;;;;;;13.68;2.38;;;12.00;99.90;;;;;;5062718;28;20056;-56
2022/10/06 07:32:25;;;;;;;14.13;2.35;;;12.00;99.90;;;;;;5063432;28;20044;-57
2022/10/06 07:34:51;;;;;;;11.65;2.65;;;12.00;99.90;;;;;;5028428;28;21343;-58
2022/10/06 07:37:18;;;;;;;13.85;2.88;;;12.10;99.90;;;;;;5061594;28;20040;-58
2022/10/06 07:39:48;;;;;;;14.15;2.72;;;12.10;99.90;;;;;;5062602;28;20055;-57
2022/10/06 07:42:15;;;;;;;14.68;2.38;;;12.20;99.90;;;;;;5059277;28;20792;-58
2022/10/06 07:44:43;;;;;;;16.95;2.28;;;12.20;99.90;;;;;;5061513;28;20056;-57
2022/10/06 07:47:09;;;;;;;13.13;2.45;;;12.30;99.90;;;;;;5061538;28;20060;-58
2022/10/06 07:49:35;;;;;;;14.73;2.42;;;12.40;99.90;;;;;;5059288;28;20043;-57
2022/10/06 07:52:01;;;;;;;15.68;2.95;;;12.40;99.90;;;;;;5060475;28;20104;-58
2022/10/06 07:54:27;;;;;;;10.10;2.22;;;12.50;99.90;;;;;;5060707;28;20550;-58
2022/10/06 07:56:54;;;;;;;24.77;2.92;;;12.60;99.90;;;;;;5064162;28;20177;-57
2022/10/06 07:59:20;;;;;;;21.30;2.88;;;12.60;99.90;;;;;;5061427;28;20052;-58
2022/10/06 08:01:46;;;;;;;16.48;2.60;;;12.70;99.90;;;;;;5060041;28;20105;-58
2022/10/06 08:04:12;;;;;;;15.45;2.70;;;12.80;99.90;;;;;;5065424;28;20082;-57
2022/10/06 08:06:39;;;;;;;14.55;2.30;;;12.90;99.90;;;;;;5060797;28;20048;-58
2022/10/06 08:09:06;;;;;;;12.45;2.50;;;13.00;99.90;;;;;;5062315;28;20652;-59
2022/10/06 08:11:32;;;;;;;14.07;2.78;;;13.10;99.90;;;;;;5063555;28;20168;-58
2022/10/06 08:13:59;;;;;;;15.35;2.38;;;13.20;99.90;;;;;;5060977;28;20040;-58
2022/10/06 08:16:29;;;;;;;9.63;2.40;;;13.30;99.90;;;;;;5061709;28;20071;-58
2022/10/06 08:18:57;;;;;;;19.25;2.40;;;13.40;99.90;;;;;;5063098;28;20048;-57
2022/10/06 08:21:29;;;;;;;15.90;2.55;;;13.50;99.90;;;;;;5059131;28;20040;-58
2022/10/06 08:23:56;;;;;;;12.68;2.45;;;13.60;99.90;;;;;;5059259;28;20048;-58
2022/10/06 08:26:24;;;;;;;16.48;2.47;;;13.70;99.90;;;;;;5062213;28;20153;-58
2022/10/06 08:28:51;;;;;;;15.48;2.67;;;13.80;99.90;;;;;;5060488;28;20051;-58
2022/10/06 08:31:20;;;;;;;14.85;2.58;;;13.90;99.90;;;;;;5036673;28;20255;-58
2022/10/06 08:33:46;;;;;;;12.20;2.47;;;14.00;99.90;;;;;;5066790;28;21006;-57
2022/10/06 08:36:15;;;;;;;11.77;2.75;;;14.10;99.90;;;;;;5072623;28;20072;-58
2022/10/06 08:38:42;;;;;;;14.77;2.70;;;14.20;99.90;;;;;;5068165;28;20602;-58
2022/10/06 08:41:23;;;;;;;12.13;2.38;;;14.30;99.90;;;;;;5069382;28;20470;-58
2022/10/06 08:44:05;;;;;;;12.77;2.22;;;14.30;99.90;;;;;;5071677;28;20048;-58
2022/10/06 08:46:45;;;;;;;11.75;2.13;;;14.40;99.90;;;;;;5067920;28;20052;-57
2022/10/06 08:49:17;;;;;;;15.75;2.45;;;14.50;99.90;;;;;;5070903;28;20055;-56
2022/10/06 08:51:58;;;;;;;15.10;1.95;;;14.60;99.90;;;;;;5049803;28;20048;-56
2022/10/06 08:54:55;;;;;;;12.10;2.35;;;14.70;99.90;;;;;;5071055;28;20097;-58
2022/10/06 08:57:27;;;;;;;9.95;2.10;;;14.80;99.90;;;;;;5057114;28;20052;-58
2022/10/06 08:59:53;;;;;;;14.10;2.63;;;14.90;99.90;;;;;;5060677;28;21256;-58
2022/10/06 09:02:28;;;;;;;12.68;2.55;;;14.90;99.90;;;;;;5057418;28;20058;-58
2022/10/06 09:04:58;;;;;;;12.45;2.17;;;15.10;99.90;;;;;;5060583;28;20051;-58
2022/10/06 09:07:34;;;;;;;18.15;2.75;;;15.20;99.90;;;;;;5059259;28;20104;-59
2022/10/06 09:10:36;;;;;;;15.40;2.60;;;15.20;99.90;;;;;;5060922;28;20060;-58
2022/10/06 09:13:34;;;;;;;11.48;2.25;;;15.30;99.90;;;;;;5004686;28;21275;-58
2022/10/06 09:16:09;;;;;;;17.55;2.53;;;15.50;99.90;;;;;;5063188;28;20662;-58
2022/10/06 09:18:54;;;;;;;13.63;2.00;;;15.50;99.90;;;;;;5060075;28;20072;-57
2022/10/06 09:21:33;;;;;;;18.48;2.63;;;15.50;99.90;;;;;;5063699;28;20047;-58
2022/10/06 09:24:06;;;;;;;12.68;2.28;;;15.50;99.90;;;;;;5060489;28;20468;-58
2022/10/06 09:26:33;;;;;;;17.10;3.03;;;15.60;99.90;;;;;;5047328;28;20234;-57
2022/10/06 09:28:59;;;;;;;17.85;2.25;;;15.70;99.90;;;;;;5061692;28;20059;-59
2022/10/06 09:31:30;;;;;;;15.82;2.30;;;15.80;99.90;;;;;;5044602;28;20481;-59
2022/10/06 09:34:09;;;;;;;16.27;2.03;;;15.90;99.90;;;;;;5061546;28;20555;-57
2022/10/06 09:36:57;;;;;;;11.88;1.85;;;16.10;99.90;;;;;;5064126;28;20489;-58
2022/10/06 09:39:25;;;;;;;9.43;2.38;;;16.20;99.90;;;;;;5042522;28;20044;-58
2022/10/06 09:41:53;;;;;;;9.38;1.70;;;16.30;99.90;;;;;;5060870;28;20052;-58
2022/10/06 09:44:35;;;;;;;14.00;2.35;;;16.40;99.90;;;;;;5062198;28;20040;-58
2022/10/06 09:47:01;;;;;;;16.07;2.67;;;16.70;99.90;;;;;;5057947;28;20105;-58
2022/10/06 09:49:30;;;;;;;11.07;2.13;;;16.80;99.90;;;;;;5062947;28;20299;-58
2022/10/06 09:52:00;;;;;;;14.73;2.00;;;16.90;99.90;;;;;;5070637;28;20478;-58
2022/10/06 09:54:30;;;;;;;10.93;2.10;;;16.90;99.90;;;;;;5054506;28;20073;-57
2022/10/06 09:56:58;;;;;;;7.80;1.77;;;16.90;99.90;;;;;;5069168;28;20056;-58
2022/10/06 09:59:34;;;;;;;12.43;2.10;;;17.00;99.70;;;;;;5066731;28;20499;-56
2022/10/06 10:02:02;;;;;;;9.93;2.22;;;17.00;99.80;;;;;;5069794;28;20044;-58
2022/10/06 10:04:31;;;;;;;11.60;2.15;;;17.10;99.60;;;;;;5025484;28;20496;-58
2022/10/06 10:07:24;;;;;;;9.48;1.95;;;17.10;99.10;;;;;;5063427;28;20056;-57
2022/10/06 10:09:53;;;;;;;;;;;17.20;98.60;;;;;;5052095;28;20129;-58
2022/10/06 10:12:27;;;;;;;9.32;1.80;;;17.20;99.00;;;;;;5061945;28;20385;-58
2022/10/06 10:15:10;;;;;;;10.07;2.08;;;17.20;98.30;;;;;;5063280;28;20394;-58
2022/10/06 10:18:04;;;;;;;8.02;1.90;;;17.30;98.10;;;;;;5062940;28;20993;-56
2022/10/06 10:20:49;;;;;;;7.65;1.85;;;17.40;98.60;;;;;;5058204;28;20789;-57
2022/10/06 10:23:20;;;;;;;11.80;2.08;;;17.60;97.90;;;;;;5062505;28;20044;-59
2022/10/06 10:26:08;;;;;;;14.73;2.55;;;17.70;97.80;;;;;;5062616;28;20501;-57
2022/10/06 10:29:01;;;;;;;11.55;2.22;;;17.90;97.70;;;;;;5062903;28;20060;-58
2022/10/06 10:31:41;;;;;;;12.57;1.90;;;18.00;97.40;;;;;;5061412;28;20136;-59
2022/10/06 10:34:07;;;;;;;10.10;2.10;;;18.10;97.20;;;;;;5069616;28;20082;-58
2022/10/06 10:36:57;;;;;;;11.43;1.70;;;18.20;96.80;;;;;;5068941;28;20044;-59
2022/10/06 10:39:40;;;;;;;17.45;2.13;;;18.20;95.30;;;;;;5062468;28;20548;-57
2022/10/06 10:42:22;;;;;;;11.63;1.90;;;18.20;94.90;;;;;;5058806;28;20374;-58
2022/10/06 10:45:01;;;;;;;12.50;1.70;;;18.10;94.40;;;;;;5062026;28;20033;-58
2022/10/06 10:47:37;;;;;;;9.60;1.60;;;18.00;93.40;;;;;;5059835;28;20067;-59
2022/10/06 10:50:12;;;;;;;7.88;1.58;;;17.80;93.00;;;;;;5043179;28;20770;-58
2022/10/06 10:52:41;;;;;;;7.72;1.70;;;17.50;92.70;;;;;;5058393;28;20115;-58
2022/10/06 10:55:31;;;;;;;14.68;3.00;;;17.30;93.40;;;;;;5063284;28;20040;-58
2022/10/06 10:58:03;;;;;;;8.73;1.95;;;17.20;93.60;;;;;;5062324;28;20044;-59
2022/10/06 11:00:34;;;;;;;6.82;1.67;;;17.30;93.80;;;;;;5064602;28;20200;-58
2022/10/06 11:03:00;;;;;;;11.48;1.83;;;17.30;93.40;;;;;;5060456;28;20119;-59
2022/10/06 11:05:38;;;;;;;10.73;2.15;;;17.20;93.50;;;;;;5021884;28;20044;-57
2022/10/06 11:08:31;;;;;;;11.45;1.90;;;17.30;94.00;;;;;;5064795;28;20048;-58
2022/10/06 11:11:00;;;;;;;7.57;1.50;;;17.40;94.00;;;;;;5064931;28;20073;-57
2022/10/06 11:13:42;;;;;;;14.48;2.10;;;17.60;94.00;;;;;;5063036;28;20036;-58
2022/10/06 11:16:11;;;;;;;8.37;1.73;;;17.80;93.80;;;;;;5062409;28;20047;-58
2022/10/06 11:19:14;;;;;;;9.13;1.42;;;18.10;93.60;;;;;;5064404;28;20375;-59
2022/10/06 11:21:58;;;;;;;;;;;18.30;93.50;;;;;;5062225;28;20047;-56
2022/10/06 11:24:52;;;;;;;6.90;1.45;;;18.50;93.70;;;;;;5047816;28;20193;-60
2022/10/06 11:27:27;;;;;;;8.63;1.40;;;18.70;92.80;;;;;;5059252;28;20063;-58
2022/10/06 11:30:10;;;;;;;14.27;2.33;;;18.80;91.80;;;;;;5063247;28;20523;-57
2022/10/06 11:32:55;;;;;;;7.80;1.38;;;18.90;90.90;;;;;;5062919;28;20125;-58
2022/10/06 11:35:24;;;;;;;11.23;1.60;;;18.90;90.60;;;;;;5061852;28;20481;-58
2022/10/06 11:43:46;;;;;;;5.43;1.35;;;19.20;87.50;;;;;;4900621;29;20048;-58
2022/10/06 11:46:11;;;;;;;6.30;1.30;;;19.10;88.20;;;;;;4907285;29;20048;-59
2022/10/06 11:48:37;;;;;;;7.65;1.05;;;19.10;86.30;;;;;;4903891;29;20115;-59
2022/10/06 11:51:33;;;;;;;6.15;1.45;;;19.10;83.80;;;;;;4903160;29;20549;-58
2022/10/06 11:53:58;;;;;;;5.63;1.42;;;19.00;84.40;;;;;;4894798;29;20055;-58
2022/10/06 11:56:37;;;;;;;7.82;1.40;;;19.10;83.60;;;;;;4909637;29;20048;-58
2022/10/06 11:59:12;;;;;;;6.35;1.52;;;19.20;82.30;;;;;;4905703;29;20051;-58
2022/10/06 12:01:43;;;;;;;4.38;1.25;;;19.10;79.50;;;;;;4908195;29;20052;-58
2022/10/06 12:04:09;;;;;;;5.75;1.10;;;19.00;81.20;;;;;;4902393;29;20052;-58
2022/10/06 12:09:45;;;;;;;11.30;1.70;;;18.90;79.70;;;;;;757823;23;21614;-58
2022/10/06 12:12:13;;;;;;;6.82;1.35;;;18.80;79.90;;;;;;4904677;28;20527;-59
2022/10/06 12:14:50;;;;;;;5.32;1.38;;;18.80;79.30;;;;;;4898681;28;20049;-59
2022/10/06 12:17:30;;;;;;;6.25;1.45;;;19.00;79.20;;;;;;4924017;28;20713;-59
2022/10/06 12:20:23;;;;;;;6.90;1.48;;;19.20;79.60;;;;;;4925181;28;20055;-59
2022/10/06 12:26:27;;;;;;;7.80;1.67;;;19.60;81.20;;;;;;4294308;23;20050;-58
2022/10/06 12:29:32;;;;;;;6.55;1.27;;;19.90;80.40;;;;;;4921364;28;20063;-59
2022/10/06 12:32:39;;;;;;;9.40;1.38;;;19.90;79.40;;;;;;4956372;28;20047;-60
2022/10/06 12:35:25;;;;;;;8.10;1.50;;;19.90;79.60;;;;;;4875832;29;20076;-59
2022/10/06 12:37:52;;;;;;;5.70;1.23;;;19.80;77.90;;;;;;4901507;28;20050;-59
2022/10/06 12:40:41;;;;;;;8.05;1.20;;;19.50;78.10;;;;;;4967982;28;20054;-59
2022/10/06 12:43:13;;;;;;;6.40;1.50;;;19.50;78.20;;;;;;4964116;28;20125;-58
2022/10/06 12:45:42;;;;;;;7.50;1.20;;;19.60;77.80;;;;;;4957683;28;20057;-58
2022/10/06 12:48:19;;;;;;;6.25;1.77;;;19.70;76.50;;;;;;4960616;28;20058;-59
2022/10/06 12:50:48;;;;;;;8.13;1.48;;;19.80;76.50;;;;;;4949586;28;20046;-58
2022/10/06 12:53:22;;;;;;;8.00;1.35;;;19.90;77.30;;;;;;5326713;23;20071;-59
2022/10/06 12:55:55;;;;;;;9.38;1.40;;;19.90;76.90;;;;;;4941466;28;20092;-58
2022/10/06 12:58:32;;;;;;;7.53;1.42;;;20.00;76.20;;;;;;5152775;23;20059;-59
2022/10/06 13:01:25;;;;;;;6.55;1.52;;;20.20;74.80;;;;;;4922617;28;20047;-60
2022/10/06 13:03:52;;;;;;;7.18;1.23;;;20.20;74.40;;;;;;5182038;23;20094;-95
2022/10/06 13:06:24;;;;;;;3.47;1.10;;;20.20;73.10;;;;;;4906172;29;20087;-93
2022/10/06 13:09:12;;;;;;;8.20;1.50;;;20.20;72.60;;;;;;4908463;29;20047;-95
2022/10/06 13:11:38;;;;;;;5.75;1.38;;;20.20;73.40;;;;;;4907532;29;20047;-93
2022/10/06 13:14:12;;;;;;;9.75;1.50;;;20.20;73.20;;;;;;4891777;29;20043;-96
2022/10/06 13:16:43;;;;;;;8.63;1.60;;;20.20;72.70;;;;;;4905976;29;20044;-96
2022/10/06 13:19:21;;;;;;;5.57;1.65;;;20.20;73.20;;;;;;4907838;29;20054;-96
2022/10/06 13:21:47;;;;;;;8.63;1.50;;;20.20;72.90;;;;;;4906845;29;20047;-95
2022/10/06 13:24:18;;;;;;;7.40;1.42;;;20.30;73.30;;;;;;4877389;29;20044;-96
2022/10/06 13:26:45;;;;;;;8.30;1.45;;;20.30;73.40;;;;;;4907160;29;20044;-96